createdAt,value
2019-01-20T00:01:49.960Z,44.47
2019-01-20T00:04:20.182Z,42.63
2019-01-20T00:06:50.292Z,44.00
2019-01-20T00:09:20.419Z,43.43
2019-01-20T00:11:50.618Z,44.00
2019-01-20T00:14:20.714Z,41.03
2019-01-20T00:16:51.918Z,42.60
2019-01-20T00:19:22.026Z,43.13
2019-01-20T00:21:52.175Z,41.43
2019-01-20T00:24:22.414Z,42.27
2019-01-20T00:26:52.898Z,38.60
2019-01-20T00:29:23.095Z,40.27
2019-01-20T00:31:53.223Z,40.63
2019-01-20T00:34:23.430Z,37.43
2019-01-20T00:36:53.543Z,39.80
2019-01-20T00:39:23.990Z,37.43
2019-01-20T00:41:54.087Z,36.73
2019-01-20T00:44:24.210Z,37.97
2019-01-20T00:46:54.306Z,36.17
2019-01-20T00:49:24.815Z,34.97
2019-01-20T00:51:54.923Z,32.77
2019-01-20T00:54:25.239Z,34.40
2019-01-20T00:56:55.334Z,33.50
2019-01-20T00:59:25.453Z,34.70
2019-01-20T01:01:55.563Z,35.97
2019-01-20T01:04:25.662Z,33.13
2019-01-20T01:06:55.787Z,32.57
2019-01-20T01:09:25.886Z,34.60
2019-01-20T01:11:56.086Z,32.67
2019-01-20T01:14:26.189Z,33.70
2019-01-20T01:16:56.357Z,32.27
2019-01-20T01:19:26.459Z,32.30
2019-01-20T01:21:56.574Z,33.80
2019-01-20T01:24:27.111Z,33.43
2019-01-20T01:26:57.202Z,34.90
2019-01-20T01:29:27.326Z,33.67
2019-01-20T01:31:58.094Z,33.13
2019-01-20T01:34:28.322Z,33.07
2019-01-20T01:36:58.426Z,31.03
2019-01-20T01:39:28.581Z,32.53
2019-01-20T01:41:58.694Z,33.63
2019-01-20T01:44:29.214Z,30.90
2019-01-20T01:46:59.319Z,31.90
2019-01-20T01:49:29.759Z,31.17
2019-01-20T01:52:00.856Z,32.03
2019-01-20T01:54:30.942Z,31.43
2019-01-20T01:57:01.082Z,31.77
2019-01-20T01:59:43.025Z,30.63
2019-01-20T02:02:13.307Z,31.90
2019-01-20T02:04:43.408Z,30.57
2019-01-20T02:07:13.602Z,30.70
2019-01-20T02:09:43.718Z,31.03
2019-01-20T02:12:13.859Z,30.30
2019-01-20T02:14:43.967Z,29.63
2019-01-20T02:17:14.090Z,28.20
2019-01-20T02:19:44.282Z,26.90
2019-01-20T02:22:14.387Z,31.10
2019-01-20T02:24:44.570Z,29.77
2019-01-20T02:27:14.674Z,32.13
2019-01-20T02:29:44.902Z,31.90
2019-01-20T02:32:34.111Z,31.67
2019-01-20T02:35:05.778Z,28.40
2019-01-20T02:37:35.886Z,29.43
2019-01-20T02:40:07.195Z,29.43
2019-01-20T02:42:37.290Z,30.57
2019-01-20T02:45:08.614Z,29.27
2019-01-20T02:47:38.714Z,30.43
2019-01-20T02:50:10.907Z,31.03
2019-01-20T02:52:40.998Z,29.67
2019-01-20T02:55:11.121Z,28.83
2019-01-20T02:57:41.251Z,30.17
2019-01-20T03:00:14.875Z,29.53
2019-01-20T03:02:44.991Z,30.30
2019-01-20T03:05:15.410Z,31.33
2019-01-20T03:07:45.538Z,31.47
2019-01-20T03:10:17.052Z,29.17
2019-01-20T03:12:47.164Z,28.67
2019-01-20T03:15:17.270Z,30.63
2019-01-20T03:17:47.419Z,30.87
2019-01-20T03:20:20.200Z,31.13
2019-01-20T03:22:50.507Z,29.23
2019-01-20T03:25:32.035Z,29.03
2019-01-20T03:28:02.180Z,29.83
2019-01-20T03:30:32.267Z,30.70
2019-01-20T03:33:02.403Z,28.30
2019-01-20T03:35:32.527Z,29.33
2019-01-20T03:38:02.650Z,30.30
2019-01-20T03:40:32.758Z,28.83
2019-01-20T03:43:02.862Z,29.80
2019-01-20T03:45:32.982Z,29.33
2019-01-20T03:48:03.113Z,29.83
2019-01-20T03:50:33.230Z,28.33
2019-01-20T03:53:03.334Z,29.50
2019-01-20T03:55:33.458Z,28.73
2019-01-20T03:58:03.576Z,30.00
2019-01-20T04:00:33.670Z,28.10
2019-01-20T04:03:04.155Z,25.67
2019-01-20T04:05:34.233Z,26.50
2019-01-20T04:08:04.688Z,27.23
2019-01-20T04:10:34.774Z,25.83
2019-01-20T04:13:05.326Z,26.77
2019-01-20T04:15:35.594Z,27.70
2019-01-20T04:18:05.750Z,27.90
2019-01-20T04:20:35.868Z,26.73
2019-01-20T04:23:05.990Z,26.57
2019-01-20T04:25:36.191Z,25.83
2019-01-20T04:28:06.289Z,26.40
2019-01-20T04:30:36.411Z,27.73
2019-01-20T04:33:06.506Z,27.27
2019-01-20T04:35:36.650Z,27.63
2019-01-20T04:38:06.742Z,27.30
2019-01-20T04:40:36.899Z,26.70
2019-01-20T04:43:06.999Z,25.83
2019-01-20T04:45:37.129Z,27.30
2019-01-20T04:48:07.362Z,27.27
2019-01-20T04:50:37.486Z,27.47
2019-01-20T04:53:08.598Z,27.50
2019-01-20T04:55:38.902Z,25.87
2019-01-20T04:58:09.310Z,26.30
2019-01-20T05:00:39.416Z,24.97
2019-01-20T05:03:09.526Z,26.33
2019-01-20T05:05:39.665Z,26.13
2019-01-20T05:08:09.902Z,26.37
2019-01-20T05:10:40.004Z,26.87
2019-01-20T05:13:10.134Z,26.97
2019-01-20T05:15:40.264Z,26.87
2019-01-20T05:18:10.388Z,26.17
2019-01-20T05:20:40.491Z,25.17
2019-01-20T05:23:10.586Z,27.37
2019-01-20T05:25:40.790Z,28.00
2019-01-20T05:28:10.886Z,28.53
2019-01-20T05:30:41.099Z,28.93
2019-01-20T05:33:11.196Z,26.90
2019-01-20T05:35:41.322Z,28.20
2019-01-20T05:38:11.435Z,27.57
2019-01-20T05:40:41.566Z,27.73
2019-01-20T05:43:11.698Z,27.87
2019-01-20T05:45:41.795Z,25.67
2019-01-20T05:48:11.921Z,26.93
2019-01-20T05:50:42.014Z,26.67
2019-01-20T05:53:12.232Z,27.00
2019-01-20T05:55:42.325Z,25.37
2019-01-20T05:58:12.450Z,26.27
2019-01-20T06:00:42.655Z,25.80
2019-01-20T06:03:14.297Z,24.30
2019-01-20T06:05:44.375Z,25.30
2019-01-20T06:08:14.513Z,25.07
2019-01-20T06:10:44.628Z,26.50
2019-01-20T06:13:14.727Z,26.23
2019-01-20T06:15:44.991Z,26.43
2019-01-20T06:18:15.147Z,25.27
2019-01-20T06:20:45.572Z,25.37
2019-01-20T06:23:15.658Z,24.80
2019-01-20T06:25:45.946Z,25.73
2019-01-20T06:28:16.038Z,24.50
2019-01-20T06:30:46.162Z,25.00
2019-01-20T06:33:16.279Z,24.93
2019-01-20T06:35:46.419Z,25.23
2019-01-20T06:38:16.544Z,25.57
2019-01-20T06:40:46.638Z,24.43
2019-01-20T06:43:16.757Z,26.13
2019-01-20T06:45:46.854Z,24.47
2019-01-20T06:48:17.004Z,27.03
2019-01-20T06:50:47.108Z,25.43
2019-01-20T06:53:17.226Z,23.80
2019-01-20T06:55:47.352Z,25.63
2019-01-20T06:58:17.454Z,25.40
2019-01-20T07:00:47.614Z,25.73
2019-01-20T07:03:17.670Z,24.93
2019-01-20T07:05:47.886Z,25.40
2019-01-20T07:08:19.050Z,26.57
2019-01-20T07:10:49.202Z,26.40
2019-01-20T07:13:19.303Z,26.03
2019-01-20T07:15:49.410Z,27.37
2019-01-20T07:18:19.537Z,29.33
2019-01-20T07:20:49.754Z,28.17
2019-01-20T07:23:19.875Z,27.77
2019-01-20T07:25:50.198Z,26.97
2019-01-20T07:28:20.310Z,27.57
2019-01-20T07:30:50.450Z,27.87
2019-01-20T07:33:20.650Z,27.07
2019-01-20T07:35:50.798Z,26.97
2019-01-20T07:38:21.014Z,27.80
2019-01-20T07:40:51.110Z,27.40
2019-01-20T07:43:21.235Z,27.33
2019-01-20T07:45:51.362Z,27.97
2019-01-20T07:48:21.482Z,25.87
2019-01-20T07:50:51.610Z,27.33
2019-01-20T07:53:21.710Z,27.17
2019-01-20T07:55:51.839Z,27.17
2019-01-20T07:58:21.938Z,28.73
2019-01-20T08:00:52.069Z,30.13
2019-01-20T08:03:22.178Z,30.63
2019-01-20T08:05:52.294Z,31.47
2019-01-20T08:08:22.414Z,29.27
2019-01-20T08:10:52.521Z,28.93
2019-01-20T08:13:24.475Z,29.47
2019-01-20T08:15:54.378Z,30.30
2019-01-20T08:18:24.958Z,30.37
2019-01-20T08:21:14.170Z,28.73
2019-01-20T08:23:44.298Z,29.83
2019-01-20T08:26:14.733Z,30.00
2019-01-20T08:28:44.901Z,29.90
2019-01-20T08:31:15.002Z,30.13
2019-01-20T08:33:45.127Z,30.83
2019-01-20T08:36:15.250Z,32.37
2019-01-20T08:38:45.346Z,32.57
2019-01-20T08:41:15.466Z,31.17
2019-01-20T08:43:45.989Z,31.40
2019-01-20T08:46:53.655Z,31.60
2019-01-20T08:49:23.750Z,30.40
2019-01-20T08:51:53.930Z,31.37
2019-01-20T08:54:24.082Z,33.17
2019-01-20T08:56:54.202Z,32.73
2019-01-20T08:59:24.436Z,31.47
2019-01-20T09:01:54.531Z,31.80
2019-01-20T09:04:24.995Z,33.47
2019-01-20T09:06:55.105Z,31.27
2019-01-20T09:09:25.235Z,34.57
2019-01-20T09:11:55.334Z,34.77
2019-01-20T09:14:25.470Z,35.00
2019-01-20T09:16:55.594Z,35.03
2019-01-20T09:19:25.698Z,34.40
2019-01-20T09:21:55.848Z,34.13
2019-01-20T09:24:25.958Z,35.30
2019-01-20T09:26:56.493Z,34.53
2019-01-20T09:29:26.663Z,37.97
2019-01-20T09:31:57.181Z,37.33
2019-01-20T09:34:27.278Z,35.90
2019-01-20T09:36:57.414Z,35.87
2019-01-20T09:39:27.539Z,37.70
2019-01-20T09:41:57.671Z,37.57
2019-01-20T09:44:27.791Z,36.17
2019-01-20T09:46:57.894Z,37.93
2019-01-20T09:49:28.016Z,34.03
2019-01-20T09:51:58.119Z,33.63
2019-01-20T09:54:30.071Z,34.33
2019-01-20T09:57:00.174Z,35.07
2019-01-20T09:59:30.399Z,34.60
2019-01-20T10:02:00.502Z,35.73
2019-01-20T10:04:30.630Z,33.37
2019-01-20T10:07:00.758Z,33.30
2019-01-20T10:09:30.851Z,34.33
2019-01-20T10:12:00.976Z,35.37
2019-01-20T10:14:31.355Z,34.97
2019-01-20T10:17:01.660Z,34.80
2019-01-20T10:19:31.750Z,34.83
2019-01-20T10:22:02.433Z,35.30
2019-01-20T10:24:32.530Z,37.37
2019-01-20T10:27:02.663Z,38.77
2019-01-20T10:29:32.782Z,39.33
2019-01-20T10:32:02.920Z,37.50
2019-01-20T10:34:33.397Z,40.57
2019-01-20T10:37:04.922Z,38.20
2019-01-20T10:39:35.026Z,38.37
2019-01-20T10:42:05.162Z,38.97
2019-01-20T10:44:35.362Z,36.90
2019-01-20T10:47:05.650Z,38.33
2019-01-20T10:49:35.871Z,37.87
2019-01-20T10:52:06.069Z,40.07
2019-01-20T10:54:36.561Z,40.60
2019-01-20T10:57:06.662Z,38.97
2019-01-20T10:59:36.782Z,37.73
2019-01-20T11:02:07.223Z,40.77
2019-01-20T11:04:37.323Z,39.87
2019-01-20T11:07:07.444Z,37.77
2019-01-20T11:09:37.538Z,39.40
2019-01-20T11:12:07.758Z,39.70
2019-01-20T11:14:37.946Z,37.50
2019-01-20T11:17:08.474Z,39.77
2019-01-20T11:19:38.567Z,40.07
2019-01-20T11:22:08.751Z,39.60
2019-01-20T11:24:38.882Z,38.43
2019-01-20T11:27:09.010Z,37.83
2019-01-20T11:29:39.134Z,36.63
2019-01-20T11:32:09.232Z,37.77
2019-01-20T11:34:39.347Z,35.97
2019-01-20T11:37:09.450Z,36.67
2019-01-20T11:39:39.655Z,39.10
2019-01-20T11:42:10.046Z,36.90
2019-01-20T11:44:40.178Z,36.77
2019-01-20T11:47:10.278Z,35.07
2019-01-20T11:49:40.390Z,34.27
2019-01-20T11:52:10.566Z,34.30
2019-01-20T11:54:40.706Z,33.20
2019-01-20T11:57:11.617Z,34.47
2019-01-20T11:59:41.714Z,34.27
2019-01-20T12:02:11.843Z,31.20
2019-01-20T12:04:41.938Z,31.93
2019-01-20T12:07:12.074Z,34.90
2019-01-20T12:09:42.170Z,35.03
2019-01-20T12:12:12.287Z,31.43
2019-01-20T12:14:42.402Z,31.57
2019-01-20T12:17:12.501Z,31.30
2019-01-20T12:19:42.607Z,33.07
2019-01-20T12:22:12.771Z,32.30
2019-01-20T12:24:43.350Z,32.03
2019-01-20T12:27:13.442Z,31.00
2019-01-20T12:29:43.554Z,32.07
2019-01-20T12:32:13.675Z,32.83
2019-01-20T12:34:43.766Z,30.87
2019-01-20T12:37:13.906Z,32.00
2019-01-20T12:39:44.011Z,32.50
2019-01-20T12:42:14.156Z,32.53
2019-01-20T12:44:45.219Z,33.40
2019-01-20T12:47:15.355Z,32.17
2019-01-20T12:49:45.459Z,31.40
2019-01-20T12:52:16.483Z,29.80
2019-01-20T12:54:46.639Z,32.07
2019-01-20T12:57:16.771Z,30.27
2019-01-20T12:59:47.231Z,31.17
2019-01-20T13:02:17.274Z,31.07
2019-01-20T13:04:47.399Z,31.10
2019-01-20T13:07:17.619Z,30.40
2019-01-20T13:09:47.742Z,30.00
2019-01-20T13:12:17.835Z,31.10
2019-01-20T13:14:48.420Z,31.37
2019-01-20T13:17:18.586Z,31.90
2019-01-20T13:19:48.703Z,32.97
2019-01-20T13:22:18.959Z,32.50
2019-01-20T13:24:49.141Z,31.30
2019-01-20T13:27:19.253Z,31.20
2019-01-20T13:29:49.365Z,30.37
2019-01-20T13:32:19.479Z,30.97
2019-01-20T13:34:49.591Z,32.63
2019-01-20T13:37:19.718Z,32.33
2019-01-20T13:39:50.102Z,33.03
2019-01-20T13:42:20.542Z,33.07
2019-01-20T13:44:50.754Z,30.47
2019-01-20T13:47:20.962Z,30.60
2019-01-20T13:49:51.055Z,32.63
2019-01-20T13:52:21.542Z,32.33
2019-01-20T13:55:03.482Z,31.80
2019-01-20T13:57:35.148Z,31.13
2019-01-20T14:00:08.270Z,32.23
2019-01-20T14:02:38.400Z,30.27
2019-01-20T14:05:08.546Z,32.97
2019-01-20T14:07:38.666Z,32.93
2019-01-20T14:10:10.594Z,32.47
2019-01-20T14:12:40.754Z,31.70
2019-01-20T14:15:12.407Z,32.23
2019-01-20T14:17:43.887Z,32.20
2019-01-20T14:20:19.046Z,31.70
2019-01-20T14:22:49.323Z,32.17
2019-01-20T14:25:22.163Z,30.77
2019-01-20T14:27:52.327Z,30.20
2019-01-20T14:30:25.211Z,31.37
2019-01-20T14:32:55.440Z,31.40
2019-01-20T14:35:25.540Z,31.00
2019-01-20T14:37:56.315Z,32.40
2019-01-20T14:40:26.414Z,30.33
2019-01-20T14:42:56.539Z,29.80
2019-01-20T14:45:26.642Z,30.37
2019-01-20T14:47:56.774Z,30.00
2019-01-20T14:50:27.150Z,29.53
2019-01-20T14:52:57.456Z,29.40
2019-01-20T14:55:27.570Z,28.70
2019-01-20T14:57:57.672Z,28.90
2019-01-20T15:00:30.742Z,28.70
2019-01-20T15:03:00.851Z,26.50
2019-01-20T15:05:31.402Z,28.40
2019-01-20T15:08:13.199Z,28.30
2019-01-20T15:10:43.456Z,28.30
2019-01-20T15:13:13.562Z,29.27
2019-01-20T15:15:43.690Z,28.30
2019-01-20T15:18:13.826Z,28.37
2019-01-20T15:20:44.303Z,28.50
2019-01-20T15:23:14.579Z,31.20
2019-01-20T15:25:44.682Z,28.50
2019-01-20T15:28:14.821Z,29.80
2019-01-20T15:30:44.917Z,30.33
2019-01-20T15:33:15.042Z,25.97
2019-01-20T15:35:45.130Z,26.80
2019-01-20T15:38:15.251Z,28.30
2019-01-20T15:40:45.376Z,29.10
2019-01-20T15:43:15.512Z,26.63
2019-01-20T15:45:45.656Z,26.13
2019-01-20T15:48:15.746Z,26.77
2019-01-20T15:50:45.857Z,25.43
2019-01-20T15:53:15.952Z,26.30
2019-01-20T15:55:46.182Z,26.90
2019-01-20T15:58:16.290Z,26.90
2019-01-20T16:00:46.421Z,26.53
2019-01-20T16:03:16.539Z,26.67
2019-01-20T16:05:46.650Z,26.23
2019-01-20T16:08:16.779Z,25.53
2019-01-20T16:10:46.874Z,25.87
2019-01-20T16:13:17.036Z,25.27
2019-01-20T16:15:47.133Z,25.53
2019-01-20T16:18:17.278Z,26.10
2019-01-20T16:20:47.411Z,27.07
2019-01-20T16:23:17.580Z,28.23
2019-01-20T16:25:47.703Z,27.17
2019-01-20T16:28:17.814Z,25.63
2019-01-20T16:30:47.954Z,26.43
2019-01-20T16:33:18.054Z,25.90
2019-01-20T16:35:48.252Z,26.47
2019-01-20T16:38:18.382Z,25.93
2019-01-20T16:40:48.480Z,25.40
2019-01-20T16:43:18.606Z,26.87
2019-01-20T16:45:49.298Z,25.67
2019-01-20T16:48:19.758Z,25.60
2019-01-20T16:50:50.151Z,24.10
2019-01-20T16:53:20.291Z,24.20
2019-01-20T16:55:51.553Z,25.70
2019-01-20T16:58:21.778Z,24.43
2019-01-20T17:00:51.879Z,24.90
2019-01-20T17:03:22.710Z,26.53
2019-01-20T17:05:52.813Z,25.40
2019-01-20T17:08:22.986Z,26.33
2019-01-20T17:10:56.158Z,24.97
2019-01-20T17:13:26.702Z,25.60
2019-01-20T17:15:56.799Z,24.20
2019-01-20T17:18:26.987Z,24.27
2019-01-20T17:20:57.038Z,25.47
2019-01-20T17:23:27.269Z,24.87
2019-01-20T17:25:57.735Z,26.50
2019-01-20T17:28:27.842Z,26.23
2019-01-20T17:30:57.963Z,26.30
2019-01-20T17:33:28.066Z,25.27
2019-01-20T17:35:58.217Z,25.53
2019-01-20T17:38:28.321Z,25.67
2019-01-20T17:40:58.458Z,26.20
2019-01-20T17:43:28.599Z,27.37
2019-01-20T17:45:59.143Z,24.00
2019-01-20T17:48:29.242Z,25.70
2019-01-20T17:50:59.394Z,24.70
2019-01-20T17:53:29.522Z,25.80
2019-01-20T17:55:59.634Z,23.47
2019-01-20T17:58:29.763Z,24.80
2019-01-20T18:01:02.913Z,23.00
2019-01-20T18:03:33.021Z,23.43
2019-01-20T18:06:03.430Z,23.20
2019-01-20T18:08:52.675Z,23.23
2019-01-20T18:11:22.794Z,21.80
2019-01-20T18:13:53.371Z,21.07
2019-01-20T18:16:23.481Z,19.93
2019-01-20T18:18:53.621Z,20.97
2019-01-20T18:21:23.738Z,22.03
2019-01-20T18:23:53.899Z,22.57
2019-01-20T18:26:24.031Z,24.10
2019-01-20T18:28:54.134Z,24.67
2019-01-20T18:31:24.284Z,24.27
2019-01-20T18:34:06.163Z,24.33
2019-01-20T18:36:36.721Z,24.37
2019-01-20T18:39:08.694Z,23.87
2019-01-20T18:41:39.110Z,24.40
2019-01-20T18:44:09.202Z,23.43
2019-01-20T18:46:39.316Z,22.97
2019-01-20T18:49:09.450Z,22.83
2019-01-20T18:51:39.580Z,25.73
2019-01-20T18:54:09.694Z,24.53
2019-01-20T18:56:39.798Z,24.30
2019-01-20T18:59:09.918Z,24.47
2019-01-20T19:01:40.023Z,24.57
2019-01-20T19:04:10.142Z,22.33
2019-01-20T19:06:40.251Z,24.10
2019-01-20T19:09:10.383Z,24.07
2019-01-20T19:11:40.490Z,24.40
2019-01-20T19:14:10.618Z,24.77
2019-01-20T19:16:40.734Z,23.37
2019-01-20T19:19:11.130Z,25.50
2019-01-20T19:21:41.234Z,24.93
2019-01-20T19:24:11.794Z,22.90
2019-01-20T19:26:42.068Z,20.90
2019-01-20T19:29:12.163Z,21.17
2019-01-20T19:31:42.570Z,22.07
2019-01-20T19:34:12.983Z,21.67
2019-01-20T19:36:43.074Z,21.67
2019-01-20T19:39:25.895Z,22.23
2019-01-20T19:41:55.999Z,21.53
2019-01-20T19:44:26.154Z,23.10
2019-01-20T19:46:56.253Z,21.77
2019-01-20T19:49:26.387Z,22.83
2019-01-20T19:51:56.515Z,21.80
2019-01-20T19:54:26.639Z,20.50
2019-01-20T19:56:57.743Z,19.97
2019-01-20T19:59:27.846Z,21.47
2019-01-20T20:01:57.975Z,19.97
2019-01-20T20:04:28.080Z,20.70
2019-01-20T20:06:58.212Z,21.10
2019-01-20T20:09:28.313Z,20.73
2019-01-20T20:11:58.450Z,20.87
2019-01-20T20:14:28.564Z,21.20
2019-01-20T20:16:58.666Z,20.77
2019-01-20T20:19:29.850Z,20.73
2019-01-20T20:22:00.026Z,19.27
2019-01-20T20:24:30.490Z,18.03
2019-01-20T20:27:00.590Z,19.17
2019-01-20T20:29:30.727Z,18.40
2019-01-20T20:32:00.868Z,18.57
2019-01-20T20:34:31.006Z,16.27
2019-01-20T20:37:01.118Z,17.67
2019-01-20T20:39:31.225Z,17.30
2019-01-20T20:42:01.354Z,17.47
2019-01-20T20:44:31.488Z,16.90
2019-01-20T20:47:01.664Z,17.93
2019-01-20T20:49:31.758Z,16.87
2019-01-20T20:52:01.914Z,17.53
2019-01-20T20:54:35.403Z,17.53
2019-01-20T20:57:03.780Z,16.80
2019-01-20T20:59:33.874Z,16.93
2019-01-20T21:02:04.020Z,16.30
2019-01-20T21:04:34.118Z,16.80
2019-01-20T21:07:04.372Z,16.63
2019-01-20T21:09:34.495Z,16.03
2019-01-20T21:12:04.687Z,16.97
2019-01-20T21:14:34.807Z,15.53
2019-01-20T21:17:04.911Z,16.20
2019-01-20T21:19:35.058Z,15.17
2019-01-20T21:22:05.161Z,15.20
2019-01-20T21:24:35.342Z,15.23
2019-01-20T21:27:05.479Z,15.07
2019-01-20T21:29:35.607Z,16.47
2019-01-20T21:32:05.728Z,15.90
2019-01-20T21:34:35.826Z,16.30
2019-01-20T21:37:05.946Z,16.33
2019-01-20T21:39:36.051Z,16.37
2019-01-20T21:42:06.194Z,16.73
2019-01-20T21:44:36.295Z,15.93
2019-01-20T21:47:06.426Z,15.83
2019-01-20T21:49:36.551Z,14.93
2019-01-20T21:52:06.638Z,16.23
2019-01-20T21:54:36.786Z,16.13
2019-01-20T21:57:06.934Z,18.00
2019-01-20T21:59:37.278Z,15.97
2019-01-20T22:02:07.374Z,17.07
2019-01-20T22:04:38.626Z,17.33
2019-01-20T22:07:08.725Z,16.93
2019-01-20T22:09:38.891Z,16.33
2019-01-20T22:12:08.990Z,17.10
2019-01-20T22:14:39.111Z,16.73
2019-01-20T22:17:09.226Z,16.93
2019-01-20T22:19:39.322Z,17.00
2019-01-20T22:22:09.445Z,17.93
2019-01-20T22:24:39.602Z,15.83
2019-01-20T22:27:09.745Z,15.97
2019-01-20T22:29:39.851Z,16.70
2019-01-20T22:32:09.987Z,14.83
2019-01-20T22:34:40.086Z,14.87
2019-01-20T22:37:10.210Z,15.10
2019-01-20T22:39:40.335Z,14.77
2019-01-20T22:42:10.454Z,14.50
2019-01-20T22:44:40.579Z,15.20
2019-01-20T22:47:10.698Z,15.17
2019-01-20T22:49:40.815Z,15.57
2019-01-20T22:52:10.914Z,15.60
2019-01-20T22:54:41.035Z,14.90
2019-01-20T22:57:11.130Z,15.93
2019-01-20T22:59:41.268Z,15.43
2019-01-20T23:02:11.370Z,15.40
2019-01-20T23:04:41.498Z,15.67
2019-01-20T23:07:11.676Z,14.90
2019-01-20T23:09:41.822Z,15.17
2019-01-20T23:12:11.942Z,15.00
2019-01-20T23:14:42.046Z,15.63
2019-01-20T23:17:12.624Z,14.53
2019-01-20T23:19:42.726Z,15.37
2019-01-20T23:22:12.894Z,14.30
2019-01-20T23:24:43.122Z,14.80
2019-01-20T23:27:13.259Z,15.13
2019-01-20T23:29:43.382Z,14.33
2019-01-20T23:32:13.471Z,14.73
2019-01-20T23:34:44.676Z,15.07
2019-01-20T23:37:15.971Z,15.17
2019-01-20T23:39:46.186Z,15.47
2019-01-20T23:42:16.279Z,16.30
2019-01-20T23:44:46.379Z,16.93
2019-01-20T23:47:16.495Z,17.30
2019-01-20T23:49:46.585Z,17.73
2019-01-20T23:52:16.798Z,16.87
2019-01-20T23:54:46.899Z,17.23
2019-01-20T23:57:17.038Z,18.00
2019-01-20T23:59:47.138Z,17.37
